sensor_id;sensor_type;location;lat;lon;timestamp;pressure;altitude;pressure_sealevel;temperature;humidity
51053;BME280;37093;37.716;-122.060;2022-10-31T00:02:10;100026.90;;;25.71;24.51
51053;BME280;37093;37.716;-122.060;2022-10-31T00:04:39;100028.08;;;25.52;24.97
51053;BME280;37093;37.716;-122.060;2022-10-31T00:07:07;100026.72;;;25.38;24.88
51053;BME280;37093;37.716;-122.060;2022-10-31T00:09:36;100023.62;;;25.62;24.10
51053;BME280;37093;37.716;-122.060;2022-10-31T00:12:04;100023.75;;;25.70;23.83
51053;BME280;37093;37.716;-122.060;2022-10-31T00:14:33;100023.80;;;25.58;24.16
51053;BME280;37093;37.716;-122.060;2022-10-31T00:17:01;100021.99;;;26.18;22.90
51053;BME280;37093;37.716;-122.060;2022-10-31T00:19:35;100021.28;;;25.40;23.60
51053;BME280;37093;37.716;-122.060;2022-10-31T00:22:03;100020.13;;;25.57;24.30
51053;BME280;37093;37.716;-122.060;2022-10-31T00:24:31;100017.58;;;25.36;24.30
51053;BME280;37093;37.716;-122.060;2022-10-31T00:27:00;100019.19;;;25.60;24.56
51053;BME280;37093;37.716;-122.060;2022-10-31T00:29:28;100017.79;;;25.67;24.54
51053;BME280;37093;37.716;-122.060;2022-10-31T00:31:57;100018.79;;;25.68;24.47
51053;BME280;37093;37.716;-122.060;2022-10-31T00:34:25;100018.11;;;25.58;25.25
51053;BME280;37093;37.716;-122.060;2022-10-31T00:36:54;100020.05;;;25.31;25.98
51053;BME280;37093;37.716;-122.060;2022-10-31T00:39:22;100018.51;;;25.35;26.05
51053;BME280;37093;37.716;-122.060;2022-10-31T00:41:50;100021.46;;;25.31;26.33
51053;BME280;37093;37.716;-122.060;2022-10-31T00:44:24;100025.55;;;25.32;26.58
51053;BME280;37093;37.716;-122.060;2022-10-31T00:46:52;100026.66;;;25.63;26.76
51053;BME280;37093;37.716;-122.060;2022-10-31T00:49:20;100031.80;;;25.31;26.95
51053;BME280;37093;37.716;-122.060;2022-10-31T00:51:48;100034.67;;;25.47;27.30
51053;BME280;37093;37.716;-122.060;2022-10-31T00:54:17;100038.76;;;25.42;27.58
51053;BME280;37093;37.716;-122.060;2022-10-31T00:56:45;100041.35;;;25.28;27.86
51053;BME280;37093;37.716;-122.060;2022-10-31T00:59:14;100038.36;;;25.00;27.91
51053;BME280;37093;37.716;-122.060;2022-10-31T01:01:42;100039.02;;;25.15;28.13
51053;BME280;37093;37.716;-122.060;2022-10-31T01:04:11;100041.03;;;24.76;28.23
51053;BME280;37093;37.716;-122.060;2022-10-31T01:06:40;100042.16;;;25.20;28.39
51053;BME280;37093;37.716;-122.060;2022-10-31T01:09:08;100042.24;;;24.87;28.53
51053;BME280;37093;37.716;-122.060;2022-10-31T01:11:36;100039.68;;;24.96;28.54
51053;BME280;37093;37.716;-122.060;2022-10-31T01:14:05;100037.59;;;24.87;28.53
51053;BME280;37093;37.716;-122.060;2022-10-31T01:16:38;100038.45;;;24.79;28.49
51053;BME280;37093;37.716;-122.060;2022-10-31T01:19:06;100042.88;;;24.45;28.96
51053;BME280;37093;37.716;-122.060;2022-10-31T01:21:35;100040.60;;;24.34;29.22
51053;BME280;37093;37.716;-122.060;2022-10-31T01:24:04;100040.07;;;24.25;29.35
51053;BME280;37093;37.716;-122.060;2022-10-31T01:26:33;100038.43;;;24.34;29.56
51053;BME280;37093;37.716;-122.060;2022-10-31T01:29:07;100040.86;;;24.20;29.92
51053;BME280;37093;37.716;-122.060;2022-10-31T01:31:38;100046.31;;;24.12;30.12
51053;BME280;37093;37.716;-122.060;2022-10-31T01:34:08;100050.44;;;24.23;30.35
51053;BME280;37093;37.716;-122.060;2022-10-31T01:36:41;100047.56;;;24.17;30.42
51053;BME280;37093;37.716;-122.060;2022-10-31T01:39:12;100049.99;;;23.95;30.64
51053;BME280;37093;37.716;-122.060;2022-10-31T01:41:43;100053.36;;;23.63;30.80
51053;BME280;37093;37.716;-122.060;2022-10-31T01:45:17;100054.96;;;23.96;31.19
51053;BME280;37093;37.716;-122.060;2022-10-31T01:47:47;100053.33;;;23.62;31.56
51053;BME280;37093;37.716;-122.060;2022-10-31T01:50:26;100053.65;;;23.58;31.64
51053;BME280;37093;37.716;-122.060;2022-10-31T01:52:56;100052.42;;;23.53;31.71
51053;BME280;37093;37.716;-122.060;2022-10-31T01:55:28;100051.67;;;23.15;31.80
51053;BME280;37093;37.716;-122.060;2022-10-31T01:58:02;100051.25;;;23.08;31.81
51053;BME280;37093;37.716;-122.060;2022-10-31T02:00:31;100048.35;;;23.49;31.93
51053;BME280;37093;37.716;-122.060;2022-10-31T02:03:00;100048.13;;;22.93;32.03
51053;BME280;37093;37.716;-122.060;2022-10-31T02:05:31;100048.31;;;22.85;32.03
51053;BME280;37093;37.716;-122.060;2022-10-31T02:08:03;100049.28;;;23.25;32.13
51053;BME280;37093;37.716;-122.060;2022-10-31T02:10:33;100051.89;;;22.96;32.32
51053;BME280;37093;37.716;-122.060;2022-10-31T02:13:05;100051.43;;;22.91;32.44
51053;BME280;37093;37.716;-122.060;2022-10-31T02:15:36;100050.60;;;23.04;32.44
51053;BME280;37093;37.716;-122.060;2022-10-31T02:18:06;100051.95;;;22.76;32.54
51053;BME280;37093;37.716;-122.060;2022-10-31T02:20:44;100054.34;;;22.90;32.61
51053;BME280;37093;37.716;-122.060;2022-10-31T02:23:31;100050.53;;;22.83;32.62
51053;BME280;37093;37.716;-122.060;2022-10-31T02:26:32;100054.38;;;22.69;32.52
51053;BME280;37093;37.716;-122.060;2022-10-31T02:29:19;100057.59;;;22.64;32.67
51053;BME280;37093;37.716;-122.060;2022-10-31T02:31:54;100059.55;;;22.55;32.75
51053;BME280;37093;37.716;-122.060;2022-10-31T02:34:28;100061.19;;;22.46;32.55
51053;BME280;37093;37.716;-122.060;2022-10-31T02:37:09;100064.19;;;22.32;32.78
51053;BME280;37093;37.716;-122.060;2022-10-31T02:39:47;100060.30;;;22.47;32.82
51053;BME280;37093;37.716;-122.060;2022-10-31T02:42:21;100054.56;;;22.06;32.88
51053;BME280;37093;37.716;-122.060;2022-10-31T02:44:58;100054.13;;;22.44;33.19
51053;BME280;37093;37.716;-122.060;2022-10-31T02:47:31;100056.73;;;22.34;33.39
51053;BME280;37093;37.716;-122.060;2022-10-31T02:50:04;100066.13;;;22.25;33.39
51053;BME280;37093;37.716;-122.060;2022-10-31T02:52:35;100072.73;;;21.90;33.40
51053;BME280;37093;37.716;-122.060;2022-10-31T02:55:13;100076.12;;;22.01;33.54
51053;BME280;37093;37.716;-122.060;2022-10-31T02:58:11;100080.31;;;21.88;33.57
51053;BME280;37093;37.716;-122.060;2022-10-31T03:00:49;100079.21;;;21.76;33.71
51053;BME280;37093;37.716;-122.060;2022-10-31T03:03:24;100077.74;;;21.66;33.90
51053;BME280;37093;37.716;-122.060;2022-10-31T03:06:00;100078.81;;;21.57;34.11
51053;BME280;37093;37.716;-122.060;2022-10-31T03:08:35;100083.41;;;21.48;34.31
51053;BME280;37093;37.716;-122.060;2022-10-31T03:11:10;100086.11;;;21.43;34.43
51053;BME280;37093;37.716;-122.060;2022-10-31T03:13:44;100089.14;;;21.32;34.55
51053;BME280;37093;37.716;-122.060;2022-10-31T03:16:16;100091.80;;;21.26;34.58
51053;BME280;37093;37.716;-122.060;2022-10-31T03:18:52;100094.72;;;21.15;34.77
51053;BME280;37093;37.716;-122.060;2022-10-31T03:21:25;100104.54;;;21.08;34.75
51053;BME280;37093;37.716;-122.060;2022-10-31T03:23:57;100105.21;;;20.98;34.94
51053;BME280;37093;37.716;-122.060;2022-10-31T03:26:27;100106.00;;;20.94;34.89
51053;BME280;37093;37.716;-122.060;2022-10-31T03:28:59;100105.84;;;21.33;34.96
51053;BME280;37093;37.716;-122.060;2022-10-31T03:31:34;100100.33;;;20.76;34.90
51053;BME280;37093;37.716;-122.060;2022-10-31T03:34:09;100101.94;;;20.87;34.96
51053;BME280;37093;37.716;-122.060;2022-10-31T03:36:41;100107.50;;;20.83;34.86
51053;BME280;37093;37.716;-122.060;2022-10-31T03:39:14;100111.07;;;20.53;35.07
51053;BME280;37093;37.716;-122.060;2022-10-31T03:41:46;100115.52;;;20.99;35.34
51053;BME280;37093;37.716;-122.060;2022-10-31T03:44:19;100110.35;;;20.64;35.14
51053;BME280;37093;37.716;-122.060;2022-10-31T03:46:50;100105.90;;;20.79;35.14
51053;BME280;37093;37.716;-122.060;2022-10-31T03:49:18;100100.78;;;20.69;35.47
51053;BME280;37093;37.716;-122.060;2022-10-31T03:51:51;100097.15;;;20.55;35.39
51053;BME280;37093;37.716;-122.060;2022-10-31T03:54:28;100091.25;;;20.49;35.56
51053;BME280;37093;37.716;-122.060;2022-10-31T03:57:05;100090.89;;;20.36;35.64
51053;BME280;37093;37.716;-122.060;2022-10-31T03:59:39;100094.25;;;20.28;36.02
51053;BME280;37093;37.716;-122.060;2022-10-31T04:02:14;100099.90;;;20.24;36.11
51053;BME280;37093;37.716;-122.060;2022-10-31T04:04:44;100107.02;;;20.22;36.18
51053;BME280;37093;37.716;-122.060;2022-10-31T04:07:19;100113.21;;;20.15;36.19
51053;BME280;37093;37.716;-122.060;2022-10-31T04:09:50;100112.71;;;20.12;36.25
51053;BME280;37093;37.716;-122.060;2022-10-31T04:12:21;100112.18;;;20.28;36.33
51053;BME280;37093;37.716;-122.060;2022-10-31T04:14:53;100110.30;;;19.82;36.04
51053;BME280;37093;37.716;-122.060;2022-10-31T04:17:31;100108.25;;;19.80;36.44
51053;BME280;37093;37.716;-122.060;2022-10-31T04:20:01;100108.57;;;19.77;37.38
51053;BME280;37093;37.716;-122.060;2022-10-31T04:22:29;100111.91;;;20.17;36.99
51053;BME280;37093;37.716;-122.060;2022-10-31T04:24:58;100110.20;;;19.88;37.12
51053;BME280;37093;37.716;-122.060;2022-10-31T04:27:26;100107.98;;;20.04;37.01
51053;BME280;37093;37.716;-122.060;2022-10-31T04:29:55;100110.59;;;19.88;36.90
51053;BME280;37093;37.716;-122.060;2022-10-31T04:32:24;100112.44;;;19.83;37.13
51053;BME280;37093;37.716;-122.060;2022-10-31T04:34:52;100109.97;;;19.38;37.20
51053;BME280;37093;37.716;-122.060;2022-10-31T04:37:20;100107.61;;;19.68;37.39
51053;BME280;37093;37.716;-122.060;2022-10-31T04:39:49;100104.45;;;19.69;36.89
51053;BME280;37093;37.716;-122.060;2022-10-31T04:42:22;100106.23;;;19.49;37.16
51053;BME280;37093;37.716;-122.060;2022-10-31T04:44:50;100104.66;;;19.63;37.36
51053;BME280;37093;37.716;-122.060;2022-10-31T04:47:19;100098.28;;;19.41;37.36
51053;BME280;37093;37.716;-122.060;2022-10-31T04:49:47;100098.17;;;19.38;37.56
51053;BME280;37093;37.716;-122.060;2022-10-31T04:52:15;100106.23;;;19.21;37.60
51053;BME280;37093;37.716;-122.060;2022-10-31T04:54:43;100104.62;;;19.39;37.60
51053;BME280;37093;37.716;-122.060;2022-10-31T04:57:11;100102.97;;;18.84;38.40
51053;BME280;37093;37.716;-122.060;2022-10-31T04:59:40;100102.79;;;19.09;37.84
51053;BME280;37093;37.716;-122.060;2022-10-31T05:02:08;100110.19;;;19.15;37.70
51053;BME280;37093;37.716;-122.060;2022-10-31T05:04:42;100115.15;;;19.11;37.70
51053;BME280;37093;37.716;-122.060;2022-10-31T05:07:10;100114.29;;;19.12;37.64
51053;BME280;37093;37.716;-122.060;2022-10-31T05:09:38;100122.09;;;19.30;37.30
51053;BME280;37093;37.716;-122.060;2022-10-31T05:12:06;100123.37;;;19.04;37.30
51053;BME280;37093;37.716;-122.060;2022-10-31T05:14:35;100123.93;;;18.94;37.37
51053;BME280;37093;37.716;-122.060;2022-10-31T05:17:03;100126.48;;;18.91;37.29
51053;BME280;37093;37.716;-122.060;2022-10-31T05:19:32;100123.27;;;18.87;37.39
51053;BME280;37093;37.716;-122.060;2022-10-31T05:22:01;100119.76;;;19.12;37.55
51053;BME280;37093;37.716;-122.060;2022-10-31T05:24:29;100120.50;;;18.80;37.80
51053;BME280;37093;37.716;-122.060;2022-10-31T05:27:02;100123.32;;;18.76;37.74
51053;BME280;37093;37.716;-122.060;2022-10-31T05:29:30;100118.69;;;18.96;37.85
51053;BME280;37093;37.716;-122.060;2022-10-31T05:31:59;100120.17;;;18.68;37.91
51053;BME280;37093;37.716;-122.060;2022-10-31T05:34:28;100119.58;;;18.88;37.85
51053;BME280;37093;37.716;-122.060;2022-10-31T05:36:56;100119.32;;;18.61;37.91
51053;BME280;37093;37.716;-122.060;2022-10-31T05:39:24;100120.83;;;18.54;38.04
51053;BME280;37093;37.716;-122.060;2022-10-31T05:41:53;100125.17;;;18.75;37.91
51053;BME280;37093;37.716;-122.060;2022-10-31T05:44:21;100125.84;;;18.42;37.84
51053;BME280;37093;37.716;-122.060;2022-10-31T05:46:49;100124.42;;;18.68;37.80
51053;BME280;37093;37.716;-122.060;2022-10-31T05:49:22;100122.65;;;18.60;37.63
51053;BME280;37093;37.716;-122.060;2022-10-31T05:51:51;100128.05;;;18.83;37.75
51053;BME280;37093;37.716;-122.060;2022-10-31T05:54:20;100127.43;;;18.29;37.84
51053;BME280;37093;37.716;-122.060;2022-10-31T05:56:48;100123.69;;;18.56;37.76
51053;BME280;37093;37.716;-122.060;2022-10-31T05:59:16;100133.06;;;18.49;37.90
51053;BME280;37093;37.716;-122.060;2022-10-31T06:01:45;100135.79;;;18.68;37.95
51053;BME280;37093;37.716;-122.060;2022-10-31T06:04:14;100137.68;;;18.13;38.04
51053;BME280;37093;37.716;-122.060;2022-10-31T06:06:42;100135.36;;;18.60;37.82
51053;BME280;37093;37.716;-122.060;2022-10-31T06:09:11;100133.71;;;18.59;38.47
51053;BME280;37093;37.716;-122.060;2022-10-31T06:11:41;100133.84;;;18.11;38.33
51053;BME280;37093;37.716;-122.060;2022-10-31T06:14:10;100133.51;;;18.07;38.65
51053;BME280;37093;37.716;-122.060;2022-10-31T06:16:38;100138.20;;;18.58;38.85
51053;BME280;37093;37.716;-122.060;2022-10-31T06:19:06;100137.26;;;18.33;38.91
51053;BME280;37093;37.716;-122.060;2022-10-31T06:21:35;100139.02;;;18.32;38.62
51053;BME280;37093;37.716;-122.060;2022-10-31T06:24:08;100138.32;;;18.44;38.60
51053;BME280;37093;37.716;-122.060;2022-10-31T06:26:36;100142.15;;;18.22;38.62
51053;BME280;37093;37.716;-122.060;2022-10-31T06:29:05;100139.75;;;18.16;38.67
51053;BME280;37093;37.716;-122.060;2022-10-31T06:31:33;100131.97;;;18.38;38.58
51053;BME280;37093;37.716;-122.060;2022-10-31T06:34:01;100128.42;;;18.09;38.57
51053;BME280;37093;37.716;-122.060;2022-10-31T06:36:30;100131.99;;;18.32;38.53
51053;BME280;37093;37.716;-122.060;2022-10-31T06:39:00;100138.36;;;18.26;38.59
51053;BME280;37093;37.716;-122.060;2022-10-31T06:41:28;100136.46;;;18.19;38.34
51053;BME280;37093;37.716;-122.060;2022-10-31T06:43:57;100136.81;;;18.15;38.60
51053;BME280;37093;37.716;-122.060;2022-10-31T06:46:25;100130.21;;;18.07;38.69
51053;BME280;37093;37.716;-122.060;2022-10-31T06:48:54;100123.78;;;18.03;38.62
51053;BME280;37093;37.716;-122.060;2022-10-31T06:51:22;100119.72;;;17.98;38.83
51053;BME280;37093;37.716;-122.060;2022-10-31T06:53:51;100120.69;;;17.95;38.93
51053;BME280;37093;37.716;-122.060;2022-10-31T06:56:20;100120.40;;;17.46;38.92
51053;BME280;37093;37.716;-122.060;2022-10-31T06:58:53;100113.96;;;17.19;40.00
51053;BME280;37093;37.716;-122.060;2022-10-31T07:01:09;100108.84;;;16.92;39.44
51053;BME280;37093;37.716;-122.060;2022-10-31T07:03:38;100102.23;;;16.55;38.22
51053;BME280;37093;37.716;-122.060;2022-10-31T07:06:06;100100.69;;;18.27;36.40
51053;BME280;37093;37.716;-122.060;2022-10-31T07:08:34;100097.02;;;18.99;36.56
51053;BME280;37093;37.716;-122.060;2022-10-31T07:11:02;100089.05;;;18.15;37.28
51053;BME280;37093;37.716;-122.060;2022-10-31T07:13:31;100085.67;;;18.16;38.42
51053;BME280;37093;37.716;-122.060;2022-10-31T07:16:02;100083.41;;;17.92;38.81
51053;BME280;37093;37.716;-122.060;2022-10-31T07:18:30;100079.31;;;17.70;38.93
51053;BME280;37093;37.716;-122.060;2022-10-31T07:20:58;100077.20;;;17.59;39.51
51053;BME280;37093;37.716;-122.060;2022-10-31T07:23:27;100074.01;;;17.57;38.84
51053;BME280;37093;37.716;-122.060;2022-10-31T07:25:56;100071.79;;;17.40;39.62
51053;BME280;37093;37.716;-122.060;2022-10-31T07:28:25;100067.36;;;17.38;40.04
51053;BME280;37093;37.716;-122.060;2022-10-31T07:30:55;100067.61;;;17.40;39.58
51053;BME280;37093;37.716;-122.060;2022-10-31T07:33:25;100065.39;;;17.72;39.48
51053;BME280;37093;37.716;-122.060;2022-10-31T07:35:53;100068.96;;;17.44;39.65
51053;BME280;37093;37.716;-122.060;2022-10-31T07:38:22;100067.42;;;17.51;39.96
51053;BME280;37093;37.716;-122.060;2022-10-31T07:40:51;100068.31;;;17.50;40.01
51053;BME280;37093;37.716;-122.060;2022-10-31T07:43:20;100072.19;;;17.47;39.77
51053;BME280;37093;37.716;-122.060;2022-10-31T07:45:52;100071.06;;;17.47;39.69
51053;BME280;37093;37.716;-122.060;2022-10-31T07:48:21;100074.76;;;17.37;39.32
51053;BME280;37093;37.716;-122.060;2022-10-31T07:50:49;100077.85;;;17.38;39.99
51053;BME280;37093;37.716;-122.060;2022-10-31T07:53:17;100082.37;;;17.36;39.65
51053;BME280;37093;37.716;-122.060;2022-10-31T07:55:51;100088.36;;;17.35;40.07
51053;BME280;37093;37.716;-122.060;2022-10-31T07:58:19;100084.61;;;17.63;39.89
51053;BME280;37093;37.716;-122.060;2022-10-31T08:00:48;100081.48;;;17.36;39.51
51053;BME280;37093;37.716;-122.060;2022-10-31T08:03:18;100085.29;;;17.36;39.87
51053;BME280;37093;37.716;-122.060;2022-10-31T08:05:46;100081.93;;;17.35;39.67
51053;BME280;37093;37.716;-122.060;2022-10-31T08:08:15;100075.03;;;17.36;39.67
51053;BME280;37093;37.716;-122.060;2022-10-31T08:10:43;100073.13;;;17.35;40.05
51053;BME280;37093;37.716;-122.060;2022-10-31T08:13:13;100075.10;;;17.34;39.91
51053;BME280;37093;37.716;-122.060;2022-10-31T08:15:42;100071.64;;;17.34;39.96
51053;BME280;37093;37.716;-122.060;2022-10-31T08:18:15;100067.32;;;17.34;39.37
51053;BME280;37093;37.716;-122.060;2022-10-31T08:20:44;100064.23;;;17.36;40.01
51053;BME280;37093;37.716;-122.060;2022-10-31T08:23:13;100061.68;;;17.35;40.26
51053;BME280;37093;37.716;-122.060;2022-10-31T08:25:41;100056.93;;;17.33;40.64
51053;BME280;37093;37.716;-122.060;2022-10-31T08:28:11;100056.46;;;17.31;41.22
51053;BME280;37093;37.716;-122.060;2022-10-31T08:30:40;100055.92;;;17.12;41.44
51053;BME280;37093;37.716;-122.060;2022-10-31T08:33:11;100051.22;;;17.42;41.66
51053;BME280;37093;37.716;-122.060;2022-10-31T08:35:40;100048.89;;;16.84;42.02
51053;BME280;37093;37.716;-122.060;2022-10-31T08:38:10;100048.56;;;15.91;44.57
51053;BME280;37093;37.716;-122.060;2022-10-31T08:40:47;100045.23;;;16.22;42.90
51053;BME280;37093;37.716;-122.060;2022-10-31T08:43:17;100033.69;;;16.69;42.29
51053;BME280;37093;37.716;-122.060;2022-10-31T08:45:48;100026.28;;;16.00;44.24
51053;BME280;37093;37.716;-122.060;2022-10-31T08:48:17;100027.27;;;16.52;43.88
51053;BME280;37093;37.716;-122.060;2022-10-31T08:50:46;100040.21;;;16.64;44.28
51053;BME280;37093;37.716;-122.060;2022-10-31T08:53:16;100040.54;;;15.95;44.33
51053;BME280;37093;37.716;-122.060;2022-10-31T08:55:45;100039.21;;;16.35;44.28
51053;BME280;37093;37.716;-122.060;2022-10-31T08:58:16;100038.30;;;16.53;44.37
51053;BME280;37093;37.716;-122.060;2022-10-31T09:00:45;100041.10;;;16.37;44.53
51053;BME280;37093;37.716;-122.060;2022-10-31T09:03:20;100034.89;;;15.96;45.25
51053;BME280;37093;37.716;-122.060;2022-10-31T09:05:48;100034.37;;;15.89;45.21
51053;BME280;37093;37.716;-122.060;2022-10-31T09:08:17;100037.03;;;15.97;45.24
51053;BME280;37093;37.716;-122.060;2022-10-31T09:10:46;100031.26;;;15.93;45.83
51053;BME280;37093;37.716;-122.060;2022-10-31T09:13:16;100024.02;;;16.11;44.84
51053;BME280;37093;37.716;-122.060;2022-10-31T09:15:46;100028.47;;;16.40;43.62
51053;BME280;37093;37.716;-122.060;2022-10-31T09:18:17;100033.98;;;16.31;43.68
51053;BME280;37093;37.716;-122.060;2022-10-31T09:20:48;100033.40;;;15.98;45.98
51053;BME280;37093;37.716;-122.060;2022-10-31T09:23:19;100024.43;;;16.47;43.98
51053;BME280;37093;37.716;-122.060;2022-10-31T09:25:49;100014.64;;;16.43;43.13
51053;BME280;37093;37.716;-122.060;2022-10-31T09:28:19;100010.56;;;16.49;42.98
51053;BME280;37093;37.716;-122.060;2022-10-31T09:30:49;100000.52;;;16.39;42.94
51053;BME280;37093;37.716;-122.060;2022-10-31T09:33:18;99996.50;;;16.72;42.87
51053;BME280;37093;37.716;-122.060;2022-10-31T09:35:46;99996.76;;;16.22;43.12
51053;BME280;37093;37.716;-122.060;2022-10-31T09:38:20;99995.27;;;15.65;44.71
51053;BME280;37093;37.716;-122.060;2022-10-31T09:41:07;99992.66;;;15.99;44.52
51053;BME280;37093;37.716;-122.060;2022-10-31T09:43:49;99998.92;;;16.09;44.09
51053;BME280;37093;37.716;-122.060;2022-10-31T09:46:25;99998.15;;;15.97;43.43
51053;BME280;37093;37.716;-122.060;2022-10-31T09:51:55;99990.13;;;16.24;42.61
51053;BME280;37093;37.716;-122.060;2022-10-31T09:54:30;99995.20;;;16.30;42.57
51053;BME280;37093;37.716;-122.060;2022-10-31T09:57:00;99996.21;;;16.40;42.41
51053;BME280;37093;37.716;-122.060;2022-10-31T09:59:33;99991.03;;;16.66;42.00
51053;BME280;37093;37.716;-122.060;2022-10-31T10:02:04;99992.82;;;16.48;42.09
51053;BME280;37093;37.716;-122.060;2022-10-31T10:04:38;99990.96;;;16.38;41.54
51053;BME280;37093;37.716;-122.060;2022-10-31T10:07:16;99992.73;;;16.47;41.36
51053;BME280;37093;37.716;-122.060;2022-10-31T10:09:47;99985.07;;;16.48;41.15
51053;BME280;37093;37.716;-122.060;2022-10-31T10:12:40;99982.39;;;16.50;41.35
51053;BME280;37093;37.716;-122.060;2022-10-31T10:15:32;99976.98;;;16.66;41.10
51053;BME280;37093;37.716;-122.060;2022-10-31T10:18:09;99973.62;;;16.32;41.11
51053;BME280;37093;37.716;-122.060;2022-10-31T10:20:48;99973.58;;;16.35;41.50
51053;BME280;37093;37.716;-122.060;2022-10-31T10:23:35;99970.53;;;16.35;41.18
51053;BME280;37093;37.716;-122.060;2022-10-31T10:26:15;99965.85;;;16.31;41.26
51053;BME280;37093;37.716;-122.060;2022-10-31T10:28:46;99966.79;;;16.24;41.21
51053;BME280;37093;37.716;-122.060;2022-10-31T10:31:21;99965.49;;;16.38;41.36
51053;BME280;37093;37.716;-122.060;2022-10-31T10:33:59;99964.51;;;16.26;41.40
51053;BME280;37093;37.716;-122.060;2022-10-31T10:36:33;99954.80;;;16.17;41.34
51053;BME280;37093;37.716;-122.060;2022-10-31T10:39:08;99948.79;;;16.19;41.35
51053;BME280;37093;37.716;-122.060;2022-10-31T10:41:43;99948.57;;;16.38;41.60
51053;BME280;37093;37.716;-122.060;2022-10-31T10:44:12;99944.05;;;16.39;41.62
51053;BME280;37093;37.716;-122.060;2022-10-31T10:46:51;99942.43;;;16.20;41.54
51053;BME280;37093;37.716;-122.060;2022-10-31T10:49:28;99948.02;;;16.17;41.52
51053;BME280;37093;37.716;-122.060;2022-10-31T10:52:02;99938.33;;;15.75;42.42
51053;BME280;37093;37.716;-122.060;2022-10-31T10:54:48;99932.19;;;15.93;41.72
51053;BME280;37093;37.716;-122.060;2022-10-31T10:57:32;99934.20;;;15.80;41.58
51053;BME280;37093;37.716;-122.060;2022-10-31T11:00:17;99934.59;;;16.04;41.44
51053;BME280;37093;37.716;-122.060;2022-10-31T11:02:45;99929.81;;;15.85;41.40
51053;BME280;37093;37.716;-122.060;2022-10-31T11:05:22;99926.71;;;15.48;42.13
51053;BME280;37093;37.716;-122.060;2022-10-31T11:07:51;99927.49;;;15.75;41.82
51053;BME280;37093;37.716;-122.060;2022-10-31T11:10:19;99924.55;;;15.68;41.90
51053;BME280;37093;37.716;-122.060;2022-10-31T11:13:01;99916.59;;;16.02;41.65
51053;BME280;37093;37.716;-122.060;2022-10-31T11:15:34;99907.46;;;16.06;41.91
51053;BME280;37093;37.716;-122.060;2022-10-31T11:18:05;99908.83;;;15.77;42.07
51053;BME280;37093;37.716;-122.060;2022-10-31T11:20:38;99907.22;;;15.86;42.04
51053;BME280;37093;37.716;-122.060;2022-10-31T11:23:26;99907.54;;;15.90;41.79
51053;BME280;37093;37.716;-122.060;2022-10-31T11:25:56;99906.43;;;16.03;42.01
51053;BME280;37093;37.716;-122.060;2022-10-31T11:28:26;99905.69;;;15.95;41.97
51053;BME280;37093;37.716;-122.060;2022-10-31T11:30:55;99905.25;;;15.99;41.59
51053;BME280;37093;37.716;-122.060;2022-10-31T11:33:29;99909.12;;;15.46;42.38
51053;BME280;37093;37.716;-122.060;2022-10-31T11:36:00;99905.85;;;15.60;41.99
51053;BME280;37093;37.716;-122.060;2022-10-31T11:38:34;99906.79;;;15.33;43.00
51053;BME280;37093;37.716;-122.060;2022-10-31T11:41:15;99906.56;;;15.44;42.17
51053;BME280;37093;37.716;-122.060;2022-10-31T11:43:49;99903.02;;;15.59;41.96
51053;BME280;37093;37.716;-122.060;2022-10-31T11:46:22;99901.26;;;15.58;42.46
51053;BME280;37093;37.716;-122.060;2022-10-31T11:48:54;99898.59;;;15.72;41.94
51053;BME280;37093;37.716;-122.060;2022-10-31T11:51:26;99901.15;;;16.09;42.03
51053;BME280;37093;37.716;-122.060;2022-10-31T11:53:58;99902.11;;;15.87;41.73
51053;BME280;37093;37.716;-122.060;2022-10-31T11:56:27;99899.40;;;15.89;41.72
51053;BME280;37093;37.716;-122.060;2022-10-31T11:58:56;99899.99;;;15.97;42.12
51053;BME280;37093;37.716;-122.060;2022-10-31T12:01:27;99902.89;;;16.18;41.90
51053;BME280;37093;37.716;-122.060;2022-10-31T12:04:04;99906.34;;;15.61;42.85
51053;BME280;37093;37.716;-122.060;2022-10-31T12:06:36;99903.45;;;15.91;42.26
51053;BME280;37093;37.716;-122.060;2022-10-31T12:09:16;99902.11;;;15.97;41.86
51053;BME280;37093;37.716;-122.060;2022-10-31T12:12:01;99911.42;;;15.98;42.03
51053;BME280;37093;37.716;-122.060;2022-10-31T12:14:40;99909.24;;;15.77;42.49
51053;BME280;37093;37.716;-122.060;2022-10-31T12:17:15;99902.34;;;15.72;42.66
51053;BME280;37093;37.716;-122.060;2022-10-31T12:19:51;99899.50;;;15.93;42.68
51053;BME280;37093;37.716;-122.060;2022-10-31T12:22:28;99901.73;;;15.55;43.03
51053;BME280;37093;37.716;-122.060;2022-10-31T12:25:15;99899.92;;;15.73;42.74
51053;BME280;37093;37.716;-122.060;2022-10-31T12:27:59;99900.29;;;15.81;42.73
51053;BME280;37093;37.716;-122.060;2022-10-31T12:30:43;99901.85;;;16.12;42.37
51053;BME280;37093;37.716;-122.060;2022-10-31T12:33:26;99898.45;;;15.97;42.35
51053;BME280;37093;37.716;-122.060;2022-10-31T12:36:10;99895.79;;;16.05;42.51
51053;BME280;37093;37.716;-122.060;2022-10-31T12:38:58;99901.24;;;16.43;42.88
51053;BME280;37093;37.716;-122.060;2022-10-31T12:41:45;99894.54;;;15.87;42.71
51053;BME280;37093;37.716;-122.060;2022-10-31T12:44:37;99888.03;;;15.96;42.71
51053;BME280;37093;37.716;-122.060;2022-10-31T12:47:25;99898.35;;;16.00;42.91
51053;BME280;37093;37.716;-122.060;2022-10-31T12:50:08;99912.52;;;16.06;43.16
51053;BME280;37093;37.716;-122.060;2022-10-31T12:52:50;99911.13;;;16.32;42.95